sensor_id;sensor_type;location;lat;lon;timestamp;P1;durP1;ratioP1;P2;durP2;ratioP2
45734;SDS011;31446;49.632;8.328;2022-12-17T00:02:06;42.10;;;13.95;;
45734;SDS011;31446;49.632;8.328;2022-12-17T00:17:25;34.13;;;13.85;;
45734;SDS011;31446;49.632;8.328;2022-12-17T00:32:44;32.97;;;13.18;;
45734;SDS011;31446;49.632;8.328;2022-12-17T00:48:03;32.42;;;13.50;;
45734;SDS011;31446;49.632;8.328;2022-12-17T01:03:22;35.28;;;11.23;;
45734;SDS011;31446;49.632;8.328;2022-12-17T01:18:41;32.47;;;10.90;;
45734;SDS011;31446;49.632;8.328;2022-12-17T01:34:00;29.92;;;11.32;;
45734;SDS011;31446;49.632;8.328;2022-12-17T01:49:19;37.22;;;10.32;;
45734;SDS011;31446;49.632;8.328;2022-12-17T02:04:41;22.40;;;9.93;;
45734;SDS011;31446;49.632;8.328;2022-12-17T02:20:03;26.60;;;9.80;;
45734;SDS011;31446;49.632;8.328;2022-12-17T02:35:31;27.93;;;11.73;;
45734;SDS011;31446;49.632;8.328;2022-12-17T02:50:53;23.30;;;9.73;;
45734;SDS011;31446;49.632;8.328;2022-12-17T03:06:13;25.25;;;9.55;;
45734;SDS011;31446;49.632;8.328;2022-12-17T03:21:31;25.10;;;9.90;;
45734;SDS011;31446;49.632;8.328;2022-12-17T03:36:50;20.63;;;8.77;;
45734;SDS011;31446;49.632;8.328;2022-12-17T03:52:09;26.30;;;10.48;;
45734;SDS011;31446;49.632;8.328;2022-12-17T04:07:28;22.52;;;9.60;;
45734;SDS011;31446;49.632;8.328;2022-12-17T04:22:47;23.13;;;8.80;;
45734;SDS011;31446;49.632;8.328;2022-12-17T04:38:06;28.83;;;10.20;;
45734;SDS011;31446;49.632;8.328;2022-12-17T04:53:34;24.13;;;9.68;;
45734;SDS011;31446;49.632;8.328;2022-12-17T05:08:52;23.77;;;9.93;;
45734;SDS011;31446;49.632;8.328;2022-12-17T05:24:20;25.60;;;10.05;;
45734;SDS011;31446;49.632;8.328;2022-12-17T05:39:38;22.02;;;8.80;;
45734;SDS011;31446;49.632;8.328;2022-12-17T05:54:57;24.90;;;8.70;;
45734;SDS011;31446;49.632;8.328;2022-12-17T06:10:16;28.58;;;9.93;;
45734;SDS011;31446;49.632;8.328;2022-12-17T06:25:35;28.70;;;8.75;;
45734;SDS011;31446;49.632;8.328;2022-12-17T06:41:03;23.02;;;9.05;;
45734;SDS011;31446;49.632;8.328;2022-12-17T06:56:22;40.80;;;14.15;;
45734;SDS011;31446;49.632;8.328;2022-12-17T07:11:41;30.02;;;12.25;;
45734;SDS011;31446;49.632;8.328;2022-12-17T07:26:59;22.48;;;10.73;;
45734;SDS011;31446;49.632;8.328;2022-12-17T07:42:26;41.08;;;16.52;;
45734;SDS011;31446;49.632;8.328;2022-12-17T07:57:45;34.63;;;13.52;;
45734;SDS011;31446;49.632;8.328;2022-12-17T08:13:05;58.75;;;22.15;;
45734;SDS011;31446;49.632;8.328;2022-12-17T08:28:24;71.82;;;24.30;;
45734;SDS011;31446;49.632;8.328;2022-12-17T08:43:42;49.88;;;19.30;;
45734;SDS011;31446;49.632;8.328;2022-12-17T08:59:01;66.40;;;22.05;;
45734;SDS011;31446;49.632;8.328;2022-12-17T09:14:22;59.83;;;16.93;;
45734;SDS011;31446;49.632;8.328;2022-12-17T09:29:42;49.38;;;17.65;;
45734;SDS011;31446;49.632;8.328;2022-12-17T09:45:01;61.92;;;22.45;;
45734;SDS011;31446;49.632;8.328;2022-12-17T10:00:37;57.30;;;21.63;;
45734;SDS011;31446;49.632;8.328;2022-12-17T10:15:56;60.65;;;21.58;;
45734;SDS011;31446;49.632;8.328;2022-12-17T10:31:17;57.35;;;21.85;;
45734;SDS011;31446;49.632;8.328;2022-12-17T10:46:37;61.47;;;24.02;;
45734;SDS011;31446;49.632;8.328;2022-12-17T11:01:58;66.72;;;22.65;;
45734;SDS011;31446;49.632;8.328;2022-12-17T11:17:17;53.95;;;20.50;;
45734;SDS011;31446;49.632;8.328;2022-12-17T11:32:45;69.43;;;24.10;;
45734;SDS011;31446;49.632;8.328;2022-12-17T11:48:12;63.22;;;24.85;;
45734;SDS011;31446;49.632;8.328;2022-12-17T12:03:39;64.38;;;25.92;;
45734;SDS011;31446;49.632;8.328;2022-12-17T12:19:10;67.15;;;26.00;;
45734;SDS011;31446;49.632;8.328;2022-12-17T12:34:36;61.08;;;23.13;;
45734;SDS011;31446;49.632;8.328;2022-12-17T12:49:57;55.65;;;21.40;;
45734;SDS011;31446;49.632;8.328;2022-12-17T13:05:26;52.85;;;20.95;;
45734;SDS011;31446;49.632;8.328;2022-12-17T13:20:36;60.60;;;25.55;;
45734;SDS011;31446;49.632;8.328;2022-12-17T13:35:45;57.65;;;21.27;;
45734;SDS011;31446;49.632;8.328;2022-12-17T13:50:58;58.63;;;22.17;;
45734;SDS011;31446;49.632;8.328;2022-12-17T14:06:06;53.22;;;22.08;;
45734;SDS011;31446;49.632;8.328;2022-12-17T14:21:15;57.30;;;22.42;;
45734;SDS011;31446;49.632;8.328;2022-12-17T14:36:22;60.10;;;21.30;;
45734;SDS011;31446;49.632;8.328;2022-12-17T14:51:29;51.55;;;21.95;;
45734;SDS011;31446;49.632;8.328;2022-12-17T15:06:37;60.95;;;24.48;;
45734;SDS011;31446;49.632;8.328;2022-12-17T15:21:43;64.88;;;24.35;;
45734;SDS011;31446;49.632;8.328;2022-12-17T15:36:50;79.78;;;27.45;;
45734;SDS011;31446;49.632;8.328;2022-12-17T15:51:56;82.72;;;25.23;;
45734;SDS011;31446;49.632;8.328;2022-12-17T16:07:02;92.20;;;30.55;;
45734;SDS011;31446;49.632;8.328;2022-12-17T16:22:08;100.22;;;29.58;;
45734;SDS011;31446;49.632;8.328;2022-12-17T16:37:15;123.30;;;39.70;;
45734;SDS011;31446;49.632;8.328;2022-12-17T16:52:21;89.82;;;31.65;;
45734;SDS011;31446;49.632;8.328;2022-12-17T17:07:27;80.35;;;28.80;;
45734;SDS011;31446;49.632;8.328;2022-12-17T17:22:33;86.93;;;27.88;;
45734;SDS011;31446;49.632;8.328;2022-12-17T17:37:39;78.65;;;26.20;;
45734;SDS011;31446;49.632;8.328;2022-12-17T17:52:46;85.95;;;28.98;;
45734;SDS011;31446;49.632;8.328;2022-12-17T18:07:52;81.30;;;27.98;;
45734;SDS011;31446;49.632;8.328;2022-12-17T18:22:58;87.07;;;29.38;;
45734;SDS011;31446;49.632;8.328;2022-12-17T18:38:04;93.20;;;32.83;;
45734;SDS011;31446;49.632;8.328;2022-12-17T18:53:11;85.95;;;29.75;;
45734;SDS011;31446;49.632;8.328;2022-12-17T19:08:17;96.53;;;31.02;;
45734;SDS011;31446;49.632;8.328;2022-12-17T19:23:23;99.82;;;31.05;;
45734;SDS011;31446;49.632;8.328;2022-12-17T19:38:31;100.13;;;32.70;;
45734;SDS011;31446;49.632;8.328;2022-12-17T19:53:39;104.63;;;31.25;;
45734;SDS011;31446;49.632;8.328;2022-12-17T20:08:46;96.22;;;29.33;;
45734;SDS011;31446;49.632;8.328;2022-12-17T20:23:53;108.35;;;30.30;;
45734;SDS011;31446;49.632;8.328;2022-12-17T20:39:02;120.88;;;35.00;;
45734;SDS011;31446;49.632;8.328;2022-12-17T20:54:08;111.75;;;31.70;;
45734;SDS011;31446;49.632;8.328;2022-12-17T21:09:15;120.13;;;34.03;;
45734;SDS011;31446;49.632;8.328;2022-12-17T21:24:24;94.30;;;27.65;;
45734;SDS011;31446;49.632;8.328;2022-12-17T21:39:30;96.60;;;29.25;;
45734;SDS011;31446;49.632;8.328;2022-12-17T21:54:36;92.35;;;27.45;;
45734;SDS011;31446;49.632;8.328;2022-12-17T22:09:42;101.55;;;28.60;;
45734;SDS011;31446;49.632;8.328;2022-12-17T22:24:48;79.85;;;25.95;;
45734;SDS011;31446;49.632;8.328;2022-12-17T22:39:54;90.30;;;27.58;;
45734;SDS011;31446;49.632;8.328;2022-12-17T22:55:01;110.75;;;34.50;;
45734;SDS011;31446;49.632;8.328;2022-12-17T23:10:09;78.70;;;24.27;;
45734;SDS011;31446;49.632;8.328;2022-12-17T23:25:16;94.40;;;28.10;;
45734;SDS011;31446;49.632;8.328;2022-12-17T23:40:22;92.18;;;29.52;;
45734;SDS011;31446;49.632;8.328;2022-12-17T23:55:29;128.20;;;35.50;;
